sensor_id;sensor_type;location;lat;lon;timestamp;P1;durP1;ratioP1;P2;durP2;ratioP2
74415;SDS011;62850;42.428;25.618;2023-08-31T00:02:22;9.07;;;6.05;;
74415;SDS011;62850;42.428;25.618;2023-08-31T00:04:50;8.70;;;5.70;;
74415;SDS011;62850;42.428;25.618;2023-08-31T00:07:17;9.57;;;6.00;;
74415;SDS011;62850;42.428;25.618;2023-08-31T00:09:42;11.07;;;6.88;;
74415;SDS011;62850;42.428;25.618;2023-08-31T00:12:10;11.20;;;6.20;;
74415;SDS011;62850;42.428;25.618;2023-08-31T00:14:36;10.77;;;6.47;;
74415;SDS011;62850;42.428;25.618;2023-08-31T00:17:02;11.30;;;6.10;;
74415;SDS011;62850;42.428;25.618;2023-08-31T00:19:29;13.93;;;6.50;;
74415;SDS011;62850;42.428;25.618;2023-08-31T00:21:54;10.45;;;6.35;;
74415;SDS011;62850;42.428;25.618;2023-08-31T00:24:20;9.75;;;5.95;;
74415;SDS011;62850;42.428;25.618;2023-08-31T00:26:47;9.65;;;6.03;;
74415;SDS011;62850;42.428;25.618;2023-08-31T00:29:16;8.00;;;5.88;;
74415;SDS011;62850;42.428;25.618;2023-08-31T00:31:42;9.80;;;6.40;;
74415;SDS011;62850;42.428;25.618;2023-08-31T00:34:10;10.82;;;6.38;;
74415;SDS011;62850;42.428;25.618;2023-08-31T00:36:40;11.93;;;6.50;;
74415;SDS011;62850;42.428;25.618;2023-08-31T00:39:06;9.73;;;6.43;;
74415;SDS011;62850;42.428;25.618;2023-08-31T00:41:36;12.90;;;6.50;;
74415;SDS011;62850;42.428;25.618;2023-08-31T00:44:02;10.32;;;6.15;;
74415;SDS011;62850;42.428;25.618;2023-08-31T00:46:30;9.80;;;6.53;;
74415;SDS011;62850;42.428;25.618;2023-08-31T00:48:57;11.70;;;6.68;;
74415;SDS011;62850;42.428;25.618;2023-08-31T00:51:24;10.23;;;6.55;;
74415;SDS011;62850;42.428;25.618;2023-08-31T00:53:53;9.65;;;6.07;;
74415;SDS011;62850;42.428;25.618;2023-08-31T00:56:20;9.90;;;6.38;;
74415;SDS011;62850;42.428;25.618;2023-08-31T00:58:46;9.27;;;5.80;;
74415;SDS011;62850;42.428;25.618;2023-08-31T01:01:24;13.43;;;6.93;;
74415;SDS011;62850;42.428;25.618;2023-08-31T01:06:45;9.05;;;6.75;;
74415;SDS011;62850;42.428;25.618;2023-08-31T01:09:27;11.82;;;6.60;;
74415;SDS011;62850;42.428;25.618;2023-08-31T01:12:21;9.68;;;6.47;;
74415;SDS011;62850;42.428;25.618;2023-08-31T01:15:04;12.98;;;7.28;;
74415;SDS011;62850;42.428;25.618;2023-08-31T01:17:37;13.27;;;7.03;;
74415;SDS011;62850;42.428;25.618;2023-08-31T01:20:08;9.95;;;6.90;;
74415;SDS011;62850;42.428;25.618;2023-08-31T01:22:40;9.48;;;6.43;;
74415;SDS011;62850;42.428;25.618;2023-08-31T01:27:38;9.52;;;6.65;;
74415;SDS011;62850;42.428;25.618;2023-08-31T01:30:04;10.52;;;6.78;;
74415;SDS011;62850;42.428;25.618;2023-08-31T01:32:31;10.85;;;6.88;;
74415;SDS011;62850;42.428;25.618;2023-08-31T01:34:58;12.60;;;6.60;;
74415;SDS011;62850;42.428;25.618;2023-08-31T01:37:34;10.45;;;6.53;;
74415;SDS011;62850;42.428;25.618;2023-08-31T01:40:16;9.07;;;6.22;;
74415;SDS011;62850;42.428;25.618;2023-08-31T01:42:44;10.02;;;6.82;;
74415;SDS011;62850;42.428;25.618;2023-08-31T01:45:11;9.15;;;6.28;;
74415;SDS011;62850;42.428;25.618;2023-08-31T01:47:46;10.27;;;6.47;;
74415;SDS011;62850;42.428;25.618;2023-08-31T01:50:12;11.15;;;6.47;;
74415;SDS011;62850;42.428;25.618;2023-08-31T01:52:38;9.88;;;6.70;;
74415;SDS011;62850;42.428;25.618;2023-08-31T01:55:05;10.70;;;6.70;;
74415;SDS011;62850;42.428;25.618;2023-08-31T01:57:31;11.45;;;6.65;;
74415;SDS011;62850;42.428;25.618;2023-08-31T01:59:58;10.07;;;6.60;;
74415;SDS011;62850;42.428;25.618;2023-08-31T02:02:25;10.40;;;6.97;;
74415;SDS011;62850;42.428;25.618;2023-08-31T02:04:50;9.40;;;6.75;;
74415;SDS011;62850;42.428;25.618;2023-08-31T02:07:17;11.07;;;7.25;;
74415;SDS011;62850;42.428;25.618;2023-08-31T02:09:43;10.65;;;6.45;;
74415;SDS011;62850;42.428;25.618;2023-08-31T02:12:09;12.77;;;6.45;;
74415;SDS011;62850;42.428;25.618;2023-08-31T02:14:36;11.15;;;6.72;;
74415;SDS011;62850;42.428;25.618;2023-08-31T02:17:02;11.23;;;6.50;;
74415;SDS011;62850;42.428;25.618;2023-08-31T02:19:28;10.55;;;6.75;;
74415;SDS011;62850;42.428;25.618;2023-08-31T02:21:53;10.13;;;6.45;;
74415;SDS011;62850;42.428;25.618;2023-08-31T02:24:19;10.82;;;6.63;;
74415;SDS011;62850;42.428;25.618;2023-08-31T02:26:45;11.77;;;6.22;;
74415;SDS011;62850;42.428;25.618;2023-08-31T02:29:11;11.57;;;6.85;;
74415;SDS011;62850;42.428;25.618;2023-08-31T02:31:37;9.60;;;6.18;;
74415;SDS011;62850;42.428;25.618;2023-08-31T02:34:03;14.20;;;6.55;;
74415;SDS011;62850;42.428;25.618;2023-08-31T02:36:29;10.52;;;6.10;;
74415;SDS011;62850;42.428;25.618;2023-08-31T02:38:55;14.63;;;6.28;;
74415;SDS011;62850;42.428;25.618;2023-08-31T02:41:21;9.45;;;6.13;;
74415;SDS011;62850;42.428;25.618;2023-08-31T02:43:49;10.65;;;5.63;;
74415;SDS011;62850;42.428;25.618;2023-08-31T02:46:16;11.05;;;6.20;;
74415;SDS011;62850;42.428;25.618;2023-08-31T02:48:41;11.00;;;6.90;;
74415;SDS011;62850;42.428;25.618;2023-08-31T02:51:07;10.10;;;6.22;;
74415;SDS011;62850;42.428;25.618;2023-08-31T02:53:33;9.65;;;5.80;;
74415;SDS011;62850;42.428;25.618;2023-08-31T02:55:59;12.65;;;6.82;;
74415;SDS011;62850;42.428;25.618;2023-08-31T02:58:25;9.73;;;6.50;;
74415;SDS011;62850;42.428;25.618;2023-08-31T03:00:50;9.35;;;6.35;;
74415;SDS011;62850;42.428;25.618;2023-08-31T03:03:17;11.40;;;6.30;;
74415;SDS011;62850;42.428;25.618;2023-08-31T03:05:43;10.07;;;5.93;;
74415;SDS011;62850;42.428;25.618;2023-08-31T03:08:10;10.43;;;6.47;;
74415;SDS011;62850;42.428;25.618;2023-08-31T03:10:36;10.32;;;6.22;;
74415;SDS011;62850;42.428;25.618;2023-08-31T03:13:03;11.07;;;6.53;;
74415;SDS011;62850;42.428;25.618;2023-08-31T03:15:31;12.98;;;6.30;;
74415;SDS011;62850;42.428;25.618;2023-08-31T03:17:58;12.50;;;6.50;;
74415;SDS011;62850;42.428;25.618;2023-08-31T03:20:24;10.57;;;6.63;;
74415;SDS011;62850;42.428;25.618;2023-08-31T03:22:50;11.57;;;6.10;;
74415;SDS011;62850;42.428;25.618;2023-08-31T03:25:16;9.48;;;6.80;;
74415;SDS011;62850;42.428;25.618;2023-08-31T03:27:42;9.35;;;6.38;;
74415;SDS011;62850;42.428;25.618;2023-08-31T03:30:09;9.95;;;6.25;;
74415;SDS011;62850;42.428;25.618;2023-08-31T03:32:35;9.25;;;6.10;;
74415;SDS011;62850;42.428;25.618;2023-08-31T03:35:02;9.38;;;6.28;;
74415;SDS011;62850;42.428;25.618;2023-08-31T03:37:32;12.07;;;6.40;;
74415;SDS011;62850;42.428;25.618;2023-08-31T03:39:59;9.55;;;6.47;;
74415;SDS011;62850;42.428;25.618;2023-08-31T03:42:24;12.02;;;6.40;;
74415;SDS011;62850;42.428;25.618;2023-08-31T03:44:50;11.88;;;6.47;;
74415;SDS011;62850;42.428;25.618;2023-08-31T03:47:16;9.75;;;6.18;;
74415;SDS011;62850;42.428;25.618;2023-08-31T03:49:42;11.18;;;6.50;;
74415;SDS011;62850;42.428;25.618;2023-08-31T03:52:08;10.73;;;6.43;;
74415;SDS011;62850;42.428;25.618;2023-08-31T03:54:34;12.20;;;6.32;;
74415;SDS011;62850;42.428;25.618;2023-08-31T03:56:59;13.63;;;6.28;;
74415;SDS011;62850;42.428;25.618;2023-08-31T03:59:26;11.75;;;5.95;;
74415;SDS011;62850;42.428;25.618;2023-08-31T04:01:51;10.02;;;6.22;;
74415;SDS011;62850;42.428;25.618;2023-08-31T04:04:17;12.38;;;6.82;;
74415;SDS011;62850;42.428;25.618;2023-08-31T04:06:43;12.13;;;6.05;;
74415;SDS011;62850;42.428;25.618;2023-08-31T04:09:10;11.32;;;6.13;;
74415;SDS011;62850;42.428;25.618;2023-08-31T04:11:36;13.90;;;6.25;;
74415;SDS011;62850;42.428;25.618;2023-08-31T04:14:01;11.15;;;6.13;;
74415;SDS011;62850;42.428;25.618;2023-08-31T04:16:27;11.13;;;6.20;;
74415;SDS011;62850;42.428;25.618;2023-08-31T04:18:54;10.93;;;5.97;;
74415;SDS011;62850;42.428;25.618;2023-08-31T04:21:20;13.07;;;6.35;;
74415;SDS011;62850;42.428;25.618;2023-08-31T04:23:46;11.23;;;6.90;;
74415;SDS011;62850;42.428;25.618;2023-08-31T04:26:12;13.27;;;6.35;;
74415;SDS011;62850;42.428;25.618;2023-08-31T04:28:39;12.52;;;6.25;;
74415;SDS011;62850;42.428;25.618;2023-08-31T04:31:06;12.75;;;6.47;;
74415;SDS011;62850;42.428;25.618;2023-08-31T04:33:33;11.93;;;6.35;;
74415;SDS011;62850;42.428;25.618;2023-08-31T04:36:00;12.57;;;6.35;;
74415;SDS011;62850;42.428;25.618;2023-08-31T04:38:27;13.88;;;6.18;;
74415;SDS011;62850;42.428;25.618;2023-08-31T04:40:53;10.32;;;6.60;;
74415;SDS011;62850;42.428;25.618;2023-08-31T04:43:19;11.57;;;6.55;;
74415;SDS011;62850;42.428;25.618;2023-08-31T04:45:44;13.27;;;6.13;;
74415;SDS011;62850;42.428;25.618;2023-08-31T04:48:10;10.63;;;6.25;;
74415;SDS011;62850;42.428;25.618;2023-08-31T04:50:37;10.43;;;6.25;;
74415;SDS011;62850;42.428;25.618;2023-08-31T04:53:02;12.45;;;6.35;;
74415;SDS011;62850;42.428;25.618;2023-08-31T04:55:29;11.65;;;6.38;;
74415;SDS011;62850;42.428;25.618;2023-08-31T04:57:55;12.07;;;6.45;;
74415;SDS011;62850;42.428;25.618;2023-08-31T05:00:22;12.93;;;6.53;;
74415;SDS011;62850;42.428;25.618;2023-08-31T05:02:48;13.30;;;6.20;;
74415;SDS011;62850;42.428;25.618;2023-08-31T05:05:14;11.93;;;6.45;;
74415;SDS011;62850;42.428;25.618;2023-08-31T05:07:40;12.60;;;6.50;;
74415;SDS011;62850;42.428;25.618;2023-08-31T05:10:05;12.48;;;6.63;;
74415;SDS011;62850;42.428;25.618;2023-08-31T05:12:32;9.05;;;6.35;;
74415;SDS011;62850;42.428;25.618;2023-08-31T05:14:58;10.40;;;6.53;;
74415;SDS011;62850;42.428;25.618;2023-08-31T05:17:25;15.18;;;6.63;;
74415;SDS011;62850;42.428;25.618;2023-08-31T05:19:50;10.55;;;6.57;;
74415;SDS011;62850;42.428;25.618;2023-08-31T05:22:16;13.90;;;6.55;;
74415;SDS011;62850;42.428;25.618;2023-08-31T05:24:43;16.80;;;6.95;;
74415;SDS011;62850;42.428;25.618;2023-08-31T05:27:09;19.52;;;7.55;;
74415;SDS011;62850;42.428;25.618;2023-08-31T05:29:34;17.23;;;8.07;;
74415;SDS011;62850;42.428;25.618;2023-08-31T05:32:00;20.52;;;7.47;;
74415;SDS011;62850;42.428;25.618;2023-08-31T05:34:26;15.20;;;8.00;;
74415;SDS011;62850;42.428;25.618;2023-08-31T05:36:52;15.48;;;8.20;;
74415;SDS011;62850;42.428;25.618;2023-08-31T05:39:18;20.67;;;8.93;;
74415;SDS011;62850;42.428;25.618;2023-08-31T05:41:43;20.77;;;8.63;;
74415;SDS011;62850;42.428;25.618;2023-08-31T05:44:09;17.98;;;8.57;;
74415;SDS011;62850;42.428;25.618;2023-08-31T05:46:35;24.98;;;9.20;;
74415;SDS011;62850;42.428;25.618;2023-08-31T05:49:03;16.10;;;7.90;;
74415;SDS011;62850;42.428;25.618;2023-08-31T05:51:29;18.42;;;8.52;;
74415;SDS011;62850;42.428;25.618;2023-08-31T05:53:55;14.30;;;7.75;;
74415;SDS011;62850;42.428;25.618;2023-08-31T05:56:20;16.70;;;7.88;;
74415;SDS011;62850;42.428;25.618;2023-08-31T05:58:46;16.05;;;7.75;;
74415;SDS011;62850;42.428;25.618;2023-08-31T06:01:12;21.50;;;8.20;;
74415;SDS011;62850;42.428;25.618;2023-08-31T06:03:38;20.63;;;8.75;;
74415;SDS011;62850;42.428;25.618;2023-08-31T06:06:04;29.00;;;13.63;;
74415;SDS011;62850;42.428;25.618;2023-08-31T06:08:30;24.95;;;12.55;;
74415;SDS011;62850;42.428;25.618;2023-08-31T06:10:56;26.08;;;10.63;;
74415;SDS011;62850;42.428;25.618;2023-08-31T06:13:21;60.20;;;25.88;;
74415;SDS011;62850;42.428;25.618;2023-08-31T06:15:47;51.13;;;22.67;;
74415;SDS011;62850;42.428;25.618;2023-08-31T06:18:13;31.70;;;12.60;;
74415;SDS011;62850;42.428;25.618;2023-08-31T06:20:39;67.53;;;25.42;;
74415;SDS011;62850;42.428;25.618;2023-08-31T06:23:05;37.72;;;15.27;;
74415;SDS011;62850;42.428;25.618;2023-08-31T06:25:31;50.90;;;20.05;;
74415;SDS011;62850;42.428;25.618;2023-08-31T06:27:57;252.20;;;99.82;;
74415;SDS011;62850;42.428;25.618;2023-08-31T06:30:23;146.15;;;57.50;;
74415;SDS011;62850;42.428;25.618;2023-08-31T06:32:49;111.13;;;40.28;;
74415;SDS011;62850;42.428;25.618;2023-08-31T06:35:15;27.05;;;12.50;;
74415;SDS011;62850;42.428;25.618;2023-08-31T06:37:42;23.30;;;11.75;;
74415;SDS011;62850;42.428;25.618;2023-08-31T06:40:09;23.10;;;10.57;;
74415;SDS011;62850;42.428;25.618;2023-08-31T06:42:36;18.48;;;8.73;;
74415;SDS011;62850;42.428;25.618;2023-08-31T06:45:06;17.00;;;8.52;;
74415;SDS011;62850;42.428;25.618;2023-08-31T06:49:59;12.40;;;6.20;;
74415;SDS011;62850;42.428;25.618;2023-08-31T06:52:25;11.13;;;5.68;;
74415;SDS011;62850;42.428;25.618;2023-08-31T06:54:51;10.98;;;6.13;;
74415;SDS011;62850;42.428;25.618;2023-08-31T06:59:48;10.27;;;6.00;;
74415;SDS011;62850;42.428;25.618;2023-08-31T07:02:14;16.85;;;7.15;;
74415;SDS011;62850;42.428;25.618;2023-08-31T07:04:40;13.20;;;6.97;;
74415;SDS011;62850;42.428;25.618;2023-08-31T07:07:06;17.63;;;6.55;;
74415;SDS011;62850;42.428;25.618;2023-08-31T07:09:33;14.63;;;8.07;;
74415;SDS011;62850;42.428;25.618;2023-08-31T07:12:02;15.20;;;6.78;;
74415;SDS011;62850;42.428;25.618;2023-08-31T07:14:27;10.93;;;6.15;;
74415;SDS011;62850;42.428;25.618;2023-08-31T07:16:53;11.60;;;6.20;;
74415;SDS011;62850;42.428;25.618;2023-08-31T07:19:18;9.20;;;5.65;;
74415;SDS011;62850;42.428;25.618;2023-08-31T07:21:44;7.72;;;5.20;;
74415;SDS011;62850;42.428;25.618;2023-08-31T07:24:09;11.60;;;5.00;;
74415;SDS011;62850;42.428;25.618;2023-08-31T07:26:35;9.85;;;6.65;;
74415;SDS011;62850;42.428;25.618;2023-08-31T07:29:01;11.48;;;6.72;;
74415;SDS011;62850;42.428;25.618;2023-08-31T07:31:29;10.32;;;5.40;;
74415;SDS011;62850;42.428;25.618;2023-08-31T07:33:55;11.38;;;5.35;;
74415;SDS011;62850;42.428;25.618;2023-08-31T07:36:21;12.45;;;5.80;;
74415;SDS011;62850;42.428;25.618;2023-08-31T07:38:46;12.77;;;5.50;;
74415;SDS011;62850;42.428;25.618;2023-08-31T07:41:12;10.68;;;6.40;;
74415;SDS011;62850;42.428;25.618;2023-08-31T07:43:37;10.25;;;5.60;;
74415;SDS011;62850;42.428;25.618;2023-08-31T07:46:03;8.55;;;5.30;;
74415;SDS011;62850;42.428;25.618;2023-08-31T07:48:28;10.80;;;5.40;;
74415;SDS011;62850;42.428;25.618;2023-08-31T07:50:54;10.73;;;6.45;;
74415;SDS011;62850;42.428;25.618;2023-08-31T07:53:20;12.45;;;5.75;;
74415;SDS011;62850;42.428;25.618;2023-08-31T07:55:55;12.63;;;5.75;;
74415;SDS011;62850;42.428;25.618;2023-08-31T07:58:24;15.80;;;6.30;;
74415;SDS011;62850;42.428;25.618;2023-08-31T08:00:54;11.50;;;5.82;;
74415;SDS011;62850;42.428;25.618;2023-08-31T08:03:24;12.65;;;6.57;;
74415;SDS011;62850;42.428;25.618;2023-08-31T08:05:50;14.15;;;6.03;;
74415;SDS011;62850;42.428;25.618;2023-08-31T08:08:15;13.20;;;6.30;;
74415;SDS011;62850;42.428;25.618;2023-08-31T08:10:41;12.65;;;6.32;;
74415;SDS011;62850;42.428;25.618;2023-08-31T08:13:08;12.05;;;5.97;;
74415;SDS011;62850;42.428;25.618;2023-08-31T08:15:34;11.73;;;6.00;;
74415;SDS011;62850;42.428;25.618;2023-08-31T08:17:59;8.98;;;4.80;;
74415;SDS011;62850;42.428;25.618;2023-08-31T08:20:25;13.57;;;6.18;;
74415;SDS011;62850;42.428;25.618;2023-08-31T08:22:52;10.02;;;5.60;;
74415;SDS011;62850;42.428;25.618;2023-08-31T08:25:18;10.68;;;5.60;;
74415;SDS011;62850;42.428;25.618;2023-08-31T08:27:47;10.68;;;5.80;;
74415;SDS011;62850;42.428;25.618;2023-08-31T08:30:14;8.70;;;5.60;;
74415;SDS011;62850;42.428;25.618;2023-08-31T08:32:40;10.43;;;5.70;;
74415;SDS011;62850;42.428;25.618;2023-08-31T08:35:06;11.68;;;5.78;;
74415;SDS011;62850;42.428;25.618;2023-08-31T08:37:32;9.63;;;5.53;;
74415;SDS011;62850;42.428;25.618;2023-08-31T08:39:58;9.55;;;5.20;;
74415;SDS011;62850;42.428;25.618;2023-08-31T08:42:24;12.75;;;5.57;;
74415;SDS011;62850;42.428;25.618;2023-08-31T08:44:50;10.68;;;5.72;;
74415;SDS011;62850;42.428;25.618;2023-08-31T08:47:17;10.48;;;5.40;;
74415;SDS011;62850;42.428;25.618;2023-08-31T08:49:43;11.07;;;5.53;;
74415;SDS011;62850;42.428;25.618;2023-08-31T08:52:09;9.63;;;5.50;;
74415;SDS011;62850;42.428;25.618;2023-08-31T08:54:36;11.02;;;5.07;;
74415;SDS011;62850;42.428;25.618;2023-08-31T08:57:02;9.80;;;4.80;;
74415;SDS011;62850;42.428;25.618;2023-08-31T08:59:29;9.45;;;4.60;;
74415;SDS011;62850;42.428;25.618;2023-08-31T09:01:55;9.00;;;5.13;;
74415;SDS011;62850;42.428;25.618;2023-08-31T09:04:21;8.77;;;5.15;;
74415;SDS011;62850;42.428;25.618;2023-08-31T09:06:47;12.55;;;5.43;;
74415;SDS011;62850;42.428;25.618;2023-08-31T09:09:13;9.05;;;5.30;;
74415;SDS011;62850;42.428;25.618;2023-08-31T09:11:38;10.60;;;5.75;;
74415;SDS011;62850;42.428;25.618;2023-08-31T09:14:16;10.50;;;5.20;;
74415;SDS011;62850;42.428;25.618;2023-08-31T09:16:46;8.63;;;4.90;;
74415;SDS011;62850;42.428;25.618;2023-08-31T09:21:49;11.85;;;5.53;;
74415;SDS011;62850;42.428;25.618;2023-08-31T09:24:16;9.05;;;5.05;;
74415;SDS011;62850;42.428;25.618;2023-08-31T09:26:56;8.88;;;4.70;;
74415;SDS011;62850;42.428;25.618;2023-08-31T09:29:23;9.02;;;5.57;;
74415;SDS011;62850;42.428;25.618;2023-08-31T09:31:48;8.63;;;5.13;;
74415;SDS011;62850;42.428;25.618;2023-08-31T09:34:14;11.60;;;4.80;;
74415;SDS011;62850;42.428;25.618;2023-08-31T09:36:41;7.47;;;4.78;;
74415;SDS011;62850;42.428;25.618;2023-08-31T09:39:07;7.03;;;4.70;;
74415;SDS011;62850;42.428;25.618;2023-08-31T09:41:34;8.05;;;5.32;;
74415;SDS011;62850;42.428;25.618;2023-08-31T09:44:33;9.23;;;5.40;;
74415;SDS011;62850;42.428;25.618;2023-08-31T09:46:51;9.80;;;5.10;;
74415;SDS011;62850;42.428;25.618;2023-08-31T09:49:17;9.30;;;4.85;;
74415;SDS011;62850;42.428;25.618;2023-08-31T09:51:47;7.97;;;5.45;;
74415;SDS011;62850;42.428;25.618;2023-08-31T09:54:14;6.70;;;4.22;;
74415;SDS011;62850;42.428;25.618;2023-08-31T09:56:42;6.30;;;4.00;;
74415;SDS011;62850;42.428;25.618;2023-08-31T09:59:12;9.98;;;4.70;;
74415;SDS011;62850;42.428;25.618;2023-08-31T10:01:42;7.03;;;4.82;;
74415;SDS011;62850;42.428;25.618;2023-08-31T10:04:10;9.85;;;5.53;;
74415;SDS011;62850;42.428;25.618;2023-08-31T10:06:41;8.07;;;5.05;;
74415;SDS011;62850;42.428;25.618;2023-08-31T10:09:07;9.88;;;4.60;;
74415;SDS011;62850;42.428;25.618;2023-08-31T10:11:40;7.60;;;4.20;;
74415;SDS011;62850;42.428;25.618;2023-08-31T10:14:07;10.10;;;4.50;;
74415;SDS011;62850;42.428;25.618;2023-08-31T10:16:35;8.75;;;4.50;;
74415;SDS011;62850;42.428;25.618;2023-08-31T10:19:04;7.00;;;4.57;;
74415;SDS011;62850;42.428;25.618;2023-08-31T10:21:29;10.77;;;4.90;;
74415;SDS011;62850;42.428;25.618;2023-08-31T10:23:55;8.48;;;4.70;;
74415;SDS011;62850;42.428;25.618;2023-08-31T10:28:56;9.18;;;4.80;;
74415;SDS011;62850;42.428;25.618;2023-08-31T10:31:27;8.00;;;4.68;;
74415;SDS011;62850;42.428;25.618;2023-08-31T10:33:54;8.90;;;4.50;;
74415;SDS011;62850;42.428;25.618;2023-08-31T10:36:22;9.23;;;4.22;;
74415;SDS011;62850;42.428;25.618;2023-08-31T10:39:04;6.53;;;4.05;;
74415;SDS011;62850;42.428;25.618;2023-08-31T10:41:36;8.27;;;4.10;;
74415;SDS011;62850;42.428;25.618;2023-08-31T10:44:02;11.45;;;4.43;;
74415;SDS011;62850;42.428;25.618;2023-08-31T10:46:43;8.43;;;4.15;;
74415;SDS011;62850;42.428;25.618;2023-08-31T10:51:40;8.95;;;4.75;;
74415;SDS011;62850;42.428;25.618;2023-08-31T10:54:11;7.65;;;4.53;;
74415;SDS011;62850;42.428;25.618;2023-08-31T11:01:54;12.52;;;6.32;;
74415;SDS011;62850;42.428;25.618;2023-08-31T11:04:22;20.20;;;8.50;;
74415;SDS011;62850;42.428;25.618;2023-08-31T11:07:10;18.15;;;7.43;;
74415;SDS011;62850;42.428;25.618;2023-08-31T11:09:39;9.18;;;4.78;;
74415;SDS011;62850;42.428;25.618;2023-08-31T11:12:05;9.05;;;4.53;;
74415;SDS011;62850;42.428;25.618;2023-08-31T11:14:31;7.25;;;4.25;;
74415;SDS011;62850;42.428;25.618;2023-08-31T11:16:57;9.23;;;4.88;;
74415;SDS011;62850;42.428;25.618;2023-08-31T11:19:25;9.95;;;4.75;;
74415;SDS011;62850;42.428;25.618;2023-08-31T11:21:51;8.40;;;4.32;;
74415;SDS011;62850;42.428;25.618;2023-08-31T11:24:17;8.10;;;4.47;;
74415;SDS011;62850;42.428;25.618;2023-08-31T11:26:43;13.32;;;4.50;;
74415;SDS011;62850;42.428;25.618;2023-08-31T11:29:13;12.55;;;4.20;;
74415;SDS011;62850;42.428;25.618;2023-08-31T11:31:39;8.60;;;5.45;;
74415;SDS011;62850;42.428;25.618;2023-08-31T11:34:15;7.30;;;4.38;;
74415;SDS011;62850;42.428;25.618;2023-08-31T11:36:42;10.55;;;4.30;;
74415;SDS011;62850;42.428;25.618;2023-08-31T11:39:11;6.78;;;4.25;;
74415;SDS011;62850;42.428;25.618;2023-08-31T11:41:42;10.35;;;4.65;;
74415;SDS011;62850;42.428;25.618;2023-08-31T11:44:09;8.35;;;4.07;;
74415;SDS011;62850;42.428;25.618;2023-08-31T11:46:41;7.85;;;5.05;;
74415;SDS011;62850;42.428;25.618;2023-08-31T11:49:08;8.52;;;4.22;;
74415;SDS011;62850;42.428;25.618;2023-08-31T11:51:35;6.15;;;4.30;;
74415;SDS011;62850;42.428;25.618;2023-08-31T11:54:04;8.75;;;5.05;;
74415;SDS011;62850;42.428;25.618;2023-08-31T11:56:42;9.85;;;5.30;;
74415;SDS011;62850;42.428;25.618;2023-08-31T11:59:09;7.78;;;4.45;;
74415;SDS011;62850;42.428;25.618;2023-08-31T12:01:39;10.18;;;4.78;;
74415;SDS011;62850;42.428;25.618;2023-08-31T12:04:24;9.00;;;4.45;;
74415;SDS011;62850;42.428;25.618;2023-08-31T12:06:53;7.55;;;4.53;;
74415;SDS011;62850;42.428;25.618;2023-08-31T12:09:30;10.73;;;6.57;;
74415;SDS011;62850;42.428;25.618;2023-08-31T12:11:56;8.90;;;5.00;;
74415;SDS011;62850;42.428;25.618;2023-08-31T12:14:22;8.93;;;5.07;;
74415;SDS011;62850;42.428;25.618;2023-08-31T12:16:50;7.57;;;4.65;;
74415;SDS011;62850;42.428;25.618;2023-08-31T12:19:17;8.43;;;4.10;;
74415;SDS011;62850;42.428;25.618;2023-08-31T12:21:43;9.52;;;4.15;;
74415;SDS011;62850;42.428;25.618;2023-08-31T12:24:11;7.55;;;4.55;;
74415;SDS011;62850;42.428;25.618;2023-08-31T12:26:42;8.63;;;4.80;;
74415;SDS011;62850;42.428;25.618;2023-08-31T12:29:08;7.65;;;4.80;;
74415;SDS011;62850;42.428;25.618;2023-08-31T12:31:35;8.93;;;4.82;;
74415;SDS011;62850;42.428;25.618;2023-08-31T12:34:01;8.23;;;4.82;;
74415;SDS011;62850;42.428;25.618;2023-08-31T12:36:31;9.95;;;4.80;;
74415;SDS011;62850;42.428;25.618;2023-08-31T12:38:57;8.73;;;4.97;;
74415;SDS011;62850;42.428;25.618;2023-08-31T12:41:27;10.27;;;4.63;;
74415;SDS011;62850;42.428;25.618;2023-08-31T12:43:53;11.70;;;4.97;;
74415;SDS011;62850;42.428;25.618;2023-08-31T12:46:19;10.88;;;5.25;;
74415;SDS011;62850;42.428;25.618;2023-08-31T12:48:45;8.20;;;4.35;;
74415;SDS011;62850;42.428;25.618;2023-08-31T12:51:10;10.07;;;4.97;;
74415;SDS011;62850;42.428;25.618;2023-08-31T12:53:39;8.82;;;4.82;;
74415;SDS011;62850;42.428;25.618;2023-08-31T12:56:05;9.88;;;5.13;;
74415;SDS011;62850;42.428;25.618;2023-08-31T12:58:32;9.73;;;5.00;;
74415;SDS011;62850;42.428;25.618;2023-08-31T13:01:00;12.48;;;4.90;;
74415;SDS011;62850;42.428;25.618;2023-08-31T13:03:26;8.30;;;4.85;;
74415;SDS011;62850;42.428;25.618;2023-08-31T13:05:52;7.20;;;4.88;;
74415;SDS011;62850;42.428;25.618;2023-08-31T13:08:18;8.90;;;5.00;;
74415;SDS011;62850;42.428;25.618;2023-08-31T13:10:50;10.77;;;5.28;;
74415;SDS011;62850;42.428;25.618;2023-08-31T13:13:19;10.63;;;4.72;;
74415;SDS011;62850;42.428;25.618;2023-08-31T13:15:49;7.93;;;4.57;;
74415;SDS011;62850;42.428;25.618;2023-08-31T13:18:15;7.45;;;4.07;;
74415;SDS011;62850;42.428;25.618;2023-08-31T13:20:48;8.02;;;4.80;;
74415;SDS011;62850;42.428;25.618;2023-08-31T13:23:17;9.63;;;4.55;;
74415;SDS011;62850;42.428;25.618;2023-08-31T13:25:43;6.97;;;4.70;;
74415;SDS011;62850;42.428;25.618;2023-08-31T13:28:09;12.13;;;5.00;;
74415;SDS011;62850;42.428;25.618;2023-08-31T13:30:35;7.53;;;4.50;;
74415;SDS011;62850;42.428;25.618;2023-08-31T13:33:01;7.35;;;4.55;;
74415;SDS011;62850;42.428;25.618;2023-08-31T13:35:29;7.53;;;4.50;;
74415;SDS011;62850;42.428;25.618;2023-08-31T13:37:55;9.32;;;4.65;;
74415;SDS011;62850;42.428;25.618;2023-08-31T13:40:21;10.65;;;4.95;;
74415;SDS011;62850;42.428;25.618;2023-08-31T13:42:56;10.02;;;4.63;;
74415;SDS011;62850;42.428;25.618;2023-08-31T13:45:26;10.65;;;4.78;;
74415;SDS011;62850;42.428;25.618;2023-08-31T13:47:52;9.77;;;5.13;;
74415;SDS011;62850;42.428;25.618;2023-08-31T13:50:19;7.03;;;4.93;;
74415;SDS011;62850;42.428;25.618;2023-08-31T13:52:45;7.30;;;4.03;;
74415;SDS011;62850;42.428;25.618;2023-08-31T13:55:11;12.05;;;5.10;;
74415;SDS011;62850;42.428;25.618;2023-08-31T13:57:37;7.45;;;4.65;;
74415;SDS011;62850;42.428;25.618;2023-08-31T14:00:04;7.68;;;4.45;;
74415;SDS011;62850;42.428;25.618;2023-08-31T14:05:00;7.57;;;4.80;;
74415;SDS011;62850;42.428;25.618;2023-08-31T14:07:27;9.07;;;4.68;;
74415;SDS011;62850;42.428;25.618;2023-08-31T14:09:53;7.70;;;4.82;;
74415;SDS011;62850;42.428;25.618;2023-08-31T14:12:18;8.07;;;4.55;;
74415;SDS011;62850;42.428;25.618;2023-08-31T14:14:45;8.52;;;4.70;;
74415;SDS011;62850;42.428;25.618;2023-08-31T14:17:12;10.98;;;4.20;;
74415;SDS011;62850;42.428;25.618;2023-08-31T14:19:37;7.95;;;4.20;;
74415;SDS011;62850;42.428;25.618;2023-08-31T14:22:04;8.77;;;4.07;;
74415;SDS011;62850;42.428;25.618;2023-08-31T14:24:31;8.90;;;4.03;;
74415;SDS011;62850;42.428;25.618;2023-08-31T14:26:57;7.30;;;4.40;;
74415;SDS011;62850;42.428;25.618;2023-08-31T14:29:22;12.60;;;4.85;;
74415;SDS011;62850;42.428;25.618;2023-08-31T14:31:48;7.82;;;4.70;;
74415;SDS011;62850;42.428;25.618;2023-08-31T14:34:15;8.45;;;3.95;;
74415;SDS011;62850;42.428;25.618;2023-08-31T14:36:40;7.85;;;4.40;;
74415;SDS011;62850;42.428;25.618;2023-08-31T14:39:06;8.05;;;3.70;;
74415;SDS011;62850;42.428;25.618;2023-08-31T14:41:31;7.60;;;4.10;;
74415;SDS011;62850;42.428;25.618;2023-08-31T14:43:57;6.80;;;4.07;;
74415;SDS011;62850;42.428;25.618;2023-08-31T14:46:23;7.68;;;4.15;;
74415;SDS011;62850;42.428;25.618;2023-08-31T14:48:49;7.68;;;4.10;;
74415;SDS011;62850;42.428;25.618;2023-08-31T14:51:16;8.63;;;4.38;;
74415;SDS011;62850;42.428;25.618;2023-08-31T14:53:42;6.72;;;4.40;;